Time;durP1;ratioP1;P1;durP2;ratioP2;P2;SDS_P1;SDS_P2;PMS_P1;PMS_P2;Temp;Humidity;BMP_temperature;BMP_pressure;BME280_temperature;BME280_humidity;BME280_pressure;Samples;Min_cycle;Max_cycle;Signal;HPM_P1;HPM_P2
2022/09/19 00:00:22;;;;;;;;;;;;;;;-142.75;100.00;77527.09;5033991;28;20371;-70
2022/09/19 00:02:47;;;;;;;;;;;;;;;-142.75;100.00;77523.16;5034196;28;19927;-69
2022/09/19 00:05:12;;;;;;;;;;;;;;;-142.75;100.00;77519.22;5034164;28;19916;-69
2022/09/19 00:07:37;;;;;;;;;;;;;;;-142.75;100.00;77527.09;5064088;22;19924;-69
2022/09/19 00:10:03;;;;;;;;;;;;;;;-142.75;100.00;77531.03;5051442;28;19923;-67
2022/09/19 00:12:28;;;;;;;;;;;;;;;-142.75;100.00;77531.03;5053390;28;20021;-69
2022/09/19 00:14:55;;;;;;;;;;;;;;;-142.75;100.00;77534.97;5053294;28;19920;-69
2022/09/19 00:17:20;;;;;;;;;;;;;;;-142.75;100.00;77534.97;5052915;28;19975;-68
2022/09/19 00:19:45;;;;;;;;;;;;;;;-142.75;100.00;77540.88;5035354;28;20003;-69
2022/09/19 00:22:10;;;;;;;;;;;;;;;-142.75;100.00;77546.78;5035193;28;20001;-69
2022/09/19 00:24:45;;;;;;;;;;;;;;;-142.75;100.00;77542.84;5053089;28;20452;-68
2022/09/19 00:27:12;;;;;;;;;;;;;;;-142.75;100.00;77542.84;5052708;28;19920;-69
2022/09/19 00:29:38;;;;;;;;;;;;;;;-142.75;100.00;77546.78;5053105;28;20433;-69
2022/09/19 00:32:07;;;;;;;;;;;;;;;-142.75;100.00;77550.72;5053023;28;20031;-69
2022/09/19 00:34:32;;;;;;;;;;;;;;;-142.75;100.00;77558.59;5052971;28;19920;-68
2022/09/19 00:36:58;;;;;;;;;;;;;;;-142.75;100.00;77554.66;5034670;28;19921;-68
2022/09/19 00:39:23;;;;;;;;;;;;;;;-142.75;100.00;77572.38;5019750;28;20016;-69
2022/09/19 00:41:49;;;;;;;;;;;;;;;-142.75;100.00;77584.19;5012227;28;20012;-69
2022/09/19 00:44:23;;;;;;;;;;;;;;;-142.75;100.00;77594.03;5013057;28;19948;-69
2022/09/19 00:47:09;;;;;;;;;;;;;;;-142.75;100.00;77578.28;5012597;28;19913;-69
2022/09/19 00:49:39;;;;;;;;;;;;;;;-142.75;100.00;77574.34;5001875;28;20338;-69
2022/09/19 00:52:10;;;;;;;;;;;;;;;-142.75;100.00;77586.16;5012760;28;20003;-69
2022/09/19 00:54:40;;;;;;;;;;;;;;;-142.75;100.00;77594.03;4995341;28;20361;-68
2022/09/19 00:57:06;;;;;;;;;;;;;;;-142.75;100.00;77596.00;5012449;28;19983;-69
2022/09/19 00:59:33;;;;;;;;;;;;;;;-142.75;100.00;77597.97;5012895;28;20379;-69
2022/09/19 01:02:02;;;;;;;;;;;;;;;-142.75;100.00;77607.81;5012730;28;19921;-68
2022/09/19 01:04:32;;;;;;;;;;;;;;;-142.75;100.00;77625.53;5012858;28;19913;-69
2022/09/19 01:07:15;;;;;;;;;;;;;;;-142.75;100.00;77643.25;5012079;28;19921;-69
2022/09/19 01:09:41;;;;;;;;;;;;;;;-142.75;100.00;77641.28;5012690;28;20367;-69
2022/09/19 01:12:15;;;;;;;;;;;;;;;-142.75;100.00;77651.13;5012801;28;19960;-69
2022/09/19 01:14:56;;;;;;;;;;;;;;;-142.75;100.00;77649.16;4993537;28;19914;-69
2022/09/19 01:17:25;;;;;;;;;;;;;;;-142.75;100.00;77647.19;5010403;28;19914;-69
2022/09/19 01:19:59;;;;;;;;;;;;;;;-142.75;100.00;77643.25;5011773;28;20447;-68
2022/09/19 01:22:43;;;;;;;;;;;;;;;-142.75;100.00;77635.38;4994892;28;19932;-69
2022/09/19 01:25:20;;;;;;;;;;;;;;;-142.75;100.00;77619.63;5012588;28;19941;-69
2022/09/19 01:28:06;;;;;;;;;;;;;;;-142.75;100.00;77617.66;5012101;28;19918;-69
2022/09/19 01:30:32;;;;;;;;;;;;;;;-142.75;100.00;77605.84;5012537;28;19960;-69
2022/09/19 01:33:11;;;;;;;;;;;;;;;-142.75;100.00;77609.78;4994882;28;19914;-69
2022/09/19 01:35:39;;;;;;;;;;;;;;;-142.75;100.00;77601.91;5012422;28;20000;-69
2022/09/19 01:38:07;;;;;;;;;;;;;;;-142.75;100.00;77603.88;4994400;28;19938;-69
2022/09/19 01:40:33;;;;;;;;;;;;;;;-142.75;100.00;77613.72;5012333;28;19964;-69
2022/09/19 01:42:58;;;;;;;;;;;;;;;-142.75;100.00;77607.81;5012397;28;19967;-69
2022/09/19 01:45:27;;;;;;;;;;;;;;;-142.75;100.00;77605.84;5012400;28;19914;-68
2022/09/19 01:47:55;;;;;;;;;;;;;;;-142.75;100.00;77609.78;4994408;28;20329;-69
2022/09/19 01:50:35;;;;;;;;;;;;;;;-142.75;100.00;77617.66;5012271;28;20455;-69
2022/09/19 01:53:17;;;;;;;;;;;;;;;-142.75;100.00;77609.78;5012383;28;19966;-69
2022/09/19 01:56:05;;;;;;;;;;;;;;;-142.75;100.00;77607.81;5012315;28;19917;-69
2022/09/19 01:58:37;;;;;;;;;;;;;;;-142.75;100.00;77621.59;5011913;28;19913;-69
2022/09/19 02:01:08;;;;;;;;;;;;;;;-142.75;100.00;77637.34;5014593;28;19922;-69
2022/09/19 02:03:48;;;;;;;;;;;;;;;-142.75;100.00;77629.47;5016039;28;19920;-69
2022/09/19 02:06:14;;;;;;;;;;;;;;;-142.75;100.00;77631.44;5015889;28;20486;-68
2022/09/19 02:08:47;;;;;;;;;;;;;;;-142.75;100.00;77633.41;5015758;28;19914;-69
2022/09/19 02:11:17;;;;;;;;;;;;;;;-142.75;100.00;77629.47;5015914;28;19917;-69
2022/09/19 02:13:45;;;;;;;;;;;;;;;-142.75;100.00;77623.56;5016035;28;19924;-69
2022/09/19 02:16:16;;;;;;;;;;;;;;;-142.75;100.00;77631.44;4998474;28;20295;-69
2022/09/19 02:18:54;;;;;;;;;;;;;;;-142.75;100.00;77637.34;5015618;28;19913;-69
2022/09/19 02:21:30;;;;;;;;;;;;;;;-142.75;100.00;77657.03;5015783;28;19953;-69
2022/09/19 02:23:59;;;;;;;;;;;;;;;-142.75;100.00;77662.94;5015683;28;19913;-69
2022/09/19 02:26:24;;;;;;;;;;;;;;;-142.75;100.00;77692.47;5015527;28;19968;-69
2022/09/19 02:28:54;;;;;;;;;;;;;;;-142.75;100.00;77700.34;5015572;28;19917;-68
2022/09/19 02:31:21;;;;;;;;;;;;;;;-142.75;100.00;77723.97;5015654;28;19920;-69
2022/09/19 02:33:47;;;;;;;;;;;;;;;-142.75;100.00;77720.03;5015474;28;19920;-69
2022/09/19 02:36:16;;;;;;;;;;;;;;;-142.75;100.00;77716.09;5015371;28;19917;-68
2022/09/19 02:38:49;;;;;;;;;;;;;;;-142.75;100.00;77723.97;5015234;28;19914;-69
2022/09/19 02:41:36;;;;;;;;;;;;;;;-142.75;100.00;77723.97;4997781;28;19932;-70
2022/09/19 02:44:01;;;;;;;;;;;;;;;-142.75;100.00;77722.00;5015452;28;19913;-69
2022/09/19 02:46:38;;;;;;;;;;;;;;;-142.75;100.00;77725.97;5015200;28;19921;-69
2022/09/19 02:49:14;;;;;;;;;;;;;;;-142.75;100.00;77720.03;5015183;28;19920;-69
2022/09/19 02:51:52;;;;;;;;;;;;;;;-142.75;100.00;77725.97;5015259;28;19921;-69
2022/09/19 02:54:19;;;;;;;;;;;;;;;-142.75;100.00;77718.06;5015196;28;19956;-69
2022/09/19 02:56:45;;;;;;;;;;;;;;;-142.75;100.00;77712.16;5014830;28;19913;-69
2022/09/19 02:59:13;;;;;;;;;;;;;;;-142.75;100.00;77722.00;5015014;28;19914;-69
2022/09/19 03:01:41;;;;;;;;;;;;;;;-142.75;100.00;77718.06;4997419;28;19940;-69
2022/09/19 03:04:12;;;;;;;;;;;;;;;-142.75;100.00;77718.06;5014927;28;19960;-69
2022/09/19 03:06:49;;;;;;;;;;;;;;;-142.75;100.00;77712.16;5014509;28;20311;-69
2022/09/19 03:09:16;;;;;;;;;;;;;;;-142.75;100.00;77704.28;4997337;28;19913;-69
2022/09/19 03:11:46;;;;;;;;;;;;;;;-142.75;100.00;77700.34;5014042;28;19914;-68
2022/09/19 03:14:12;;;;;;;;;;;;;;;-142.75;100.00;77686.56;4997206;28;19975;-68
2022/09/19 03:16:40;;;;;;;;;;;;;;;-142.75;100.00;77686.56;5014405;28;19920;-69
2022/09/19 03:19:06;;;;;;;;;;;;;;;-142.75;100.00;77696.41;4997121;28;20433;-68
2022/09/19 03:21:31;;;;;;;;;;;;;;;-142.75;100.00;77696.41;5014602;28;20360;-69
2022/09/19 03:23:58;;;;;;;;;;;;;;;-142.75;100.00;77704.28;4997052;28;19914;-69
2022/09/19 03:26:28;;;;;;;;;;;;;;;-142.75;100.00;77700.34;5014327;28;19953;-68
2022/09/19 03:28:54;;;;;;;;;;;;;;;-142.75;100.00;77708.22;5014574;28;20350;-69
2022/09/19 03:31:20;;;;;;;;;;;;;;;-142.75;100.00;77712.16;5014494;28;19921;-69
2022/09/19 03:33:46;;;;;;;;;;;;;;;-142.75;100.00;77720.03;4996866;28;20295;-69
2022/09/19 03:36:12;;;;;;;;;;;;;;;-142.75;100.00;77722.00;5014312;28;19936;-67
2022/09/19 03:38:44;;;;;;;;;;;;;;;-142.75;100.00;77718.06;4996566;28;20387;-69
2022/09/19 03:41:09;;;;;;;;;;;;;;;-142.75;100.00;77706.25;5014223;28;19918;-69
2022/09/19 03:43:34;;;;;;;;;;;;;;;-142.75;100.00;77727.94;5014222;28;20414;-69
2022/09/19 03:45:59;;;;;;;;;;;;;;;-142.75;100.00;77722.00;5014187;28;19913;-67
2022/09/19 03:48:26;;;;;;;;;;;;;;;-142.75;100.00;77735.81;5013865;28;19913;-68
2022/09/19 03:50:51;;;;;;;;;;;;;;;-142.75;100.00;77741.72;5014130;28;19932;-69
2022/09/19 03:53:16;;;;;;;;;;;;;;;-142.75;100.00;77737.78;5014062;28;20358;-69
2022/09/19 03:55:42;;;;;;;;;;;;;;;-142.75;100.00;77733.84;5013992;28;19917;-69
2022/09/19 03:58:09;;;;;;;;;;;;;;;-142.75;100.00;77745.66;5013668;28;19965;-69
2022/09/19 04:00:34;;;;;;;;;;;;;;;-142.75;100.00;77743.69;5013965;28;19983;-69
2022/09/19 04:02:59;;;;;;;;;;;;;;;-142.75;100.00;77743.69;5013758;28;20375;-69
2022/09/19 04:05:24;;;;;;;;;;;;;;;-142.75;100.00;77747.63;4996238;28;19956;-69
2022/09/19 04:07:50;;;;;;;;;;;;;;;-142.75;100.00;77751.56;4995728;28;19960;-69
2022/09/19 04:10:15;;;;;;;;;;;;;;;-142.75;100.00;77751.56;5016296;28;19956;-68
2022/09/19 04:12:41;;;;;;;;;;;;;;;-142.75;100.00;77739.75;5012671;28;19918;-69
2022/09/19 04:15:07;;;;;;;;;;;;;;;-142.75;100.00;77735.81;5015577;28;19920;-69
2022/09/19 04:17:32;;;;;;;;;;;;;;;-142.75;100.00;77741.72;5032908;28;20026;-69
2022/09/19 04:19:57;;;;;;;;;;;;;;;-142.75;100.00;77751.56;5033291;28;20075;-69
2022/09/19 04:22:23;;;;;;;;;;;;;;;-142.75;100.00;77743.69;5033149;28;19917;-69
2022/09/19 04:24:48;;;;;;;;;;;;;;;-142.75;100.00;77751.56;5031930;28;20287;-69
2022/09/19 04:27:13;;;;;;;;;;;;;;;-142.75;100.00;77757.47;5015080;28;19920;-69
2022/09/19 04:29:40;;;;;;;;;;;;;;;-142.75;100.00;77775.19;5031799;28;20378;-68
2022/09/19 04:32:05;;;;;;;;;;;;;;;-142.75;100.00;77779.13;5033019;28;20426;-69
2022/09/19 04:34:31;;;;;;;;;;;;;;;-142.75;100.00;77806.69;5032919;28;19917;-69
2022/09/19 04:36:57;;;;;;;;;;;;;;;-142.75;100.00;77800.78;5032682;28;19920;-68
2022/09/19 04:39:23;;;;;;;;;;;;;;;-142.75;100.00;77808.66;5032809;28;19917;-69
2022/09/19 04:41:52;;;;;;;;;;;;;;;-142.75;100.00;77810.63;5015033;28;19924;-69
2022/09/19 04:44:17;;;;;;;;;;;;;;;-142.75;100.00;77812.59;5032930;28;19913;-69
2022/09/19 04:46:42;;;;;;;;;;;;;;;-142.75;100.00;77816.53;5030760;28;19913;-68
2022/09/19 04:49:08;;;;;;;;;;;;;;;-142.75;100.00;77818.50;5013232;28;19913;-69
2022/09/19 04:51:33;;;;;;;;;;;;;;;-142.75;100.00;77840.16;5030818;28;19967;-68
2022/09/19 04:53:59;;;;;;;;;;;;;;;-142.75;100.00;77834.25;5032632;28;19917;-69
2022/09/19 04:56:26;;;;;;;;;;;;;;;-142.75;100.00;77822.44;5032591;28;19944;-69
2022/09/19 04:58:51;;;;;;;;;;;;;;;-142.75;100.00;77822.44;5014781;28;19924;-68
2022/09/19 05:01:16;;;;;;;;;;;;;;;-142.75;100.00;77822.44;5014758;28;19917;-69
2022/09/19 05:03:45;;;;;;;;;;;;;;;-142.75;100.00;77846.06;5032609;28;19917;-67
2022/09/19 05:06:11;;;;;;;;;;;;;;;-142.75;100.00;77838.19;5032427;28;19920;-69
2022/09/19 05:08:37;;;;;;;;;;;;;;;-142.75;100.00;77850.00;5014407;28;19917;-70
2022/09/19 05:11:03;;;;;;;;;;;;;;;-142.75;100.00;77842.13;5032455;28;19917;-68
2022/09/19 05:13:30;;;;;;;;;;;;;;;-142.75;100.00;77850.00;5032525;28;20327;-69
2022/09/19 05:15:56;;;;;;;;;;;;;;;-142.75;100.00;77846.06;5032360;28;19913;-68
2022/09/19 05:18:22;;;;;;;;;;;;;;;-142.75;100.00;77850.00;5014371;28;19913;-69
2022/09/19 05:20:52;;;;;;;;;;;;;;;-142.75;100.00;77844.09;5014451;28;19913;-69
2022/09/19 05:23:17;;;;;;;;;;;;;;;-142.75;100.00;77846.06;5032323;28;20466;-68
2022/09/19 05:25:42;;;;;;;;;;;;;;;-142.75;100.00;77832.28;5032348;28;19955;-69
2022/09/19 05:28:08;;;;;;;;;;;;;;;-142.75;100.00;77836.22;5031897;28;20001;-67
2022/09/19 05:30:34;;;;;;;;;;;;;;;-142.75;100.00;77834.25;5030625;28;19917;-69
2022/09/19 05:33:00;;;;;;;;;;;;;;;-142.75;100.00;77830.31;5012565;28;19914;-69
2022/09/19 05:35:25;;;;;;;;;;;;;;;-142.75;100.00;77822.44;5012030;28;19913;-69
2022/09/19 05:37:51;;;;;;;;;;;;;;;-142.75;100.00;77820.47;5012068;28;19976;-69
2022/09/19 05:40:18;;;;;;;;;;;;;;;-142.75;100.00;77816.53;5012450;28;19913;-69
2022/09/19 05:42:44;;;;;;;;;;;;;;;-142.75;100.00;77826.38;5012360;28;20423;-68
2022/09/19 05:45:10;;;;;;;;;;;;;;;-142.75;100.00;77810.63;4994752;28;19999;-69
2022/09/19 05:47:35;;;;;;;;;;;;;;;-142.75;100.00;77800.78;5012020;28;20017;-69
2022/09/19 05:50:01;;;;;;;;;;;;;;;-142.75;100.00;77788.97;5012286;28;20429;-69
2022/09/19 05:55:09;;;;;;;;;;;;;;;-142.75;100.00;77787.00;5012598;28;19920;-69
2022/09/19 05:57:35;;;;;;;;;;;;;;;-142.75;100.00;77790.94;5011948;28;19913;-69
2022/09/19 06:00:00;;;;;;;;;;;;;;;-142.75;100.00;77783.06;5027422;28;19925;-69
2022/09/19 06:02:25;;;;;;;;;;;;;;;-142.75;100.00;77771.25;5022919;28;19922;-69
2022/09/19 06:04:50;;;;;;;;;;;;;;;-142.75;100.00;77773.22;5020762;28;19924;-68
2022/09/19 06:07:16;;;;;;;;;;;;;;;-142.75;100.00;77747.63;5021823;28;20003;-69
2022/09/19 06:09:42;;;;;;;;;;;;;;;-142.75;100.00;77737.78;5051718;22;19928;-69
2022/09/19 06:12:07;;;;;;;;;;;;;;;-142.75;100.00;77727.94;5070989;28;19923;-69
2022/09/19 06:14:35;;;;;;;;;;;;;;;-142.75;100.00;77710.19;5071697;28;19920;-69
2022/09/19 06:17:00;;;;;;;;;;;;;;;-142.75;100.00;77684.59;5072014;28;20301;-69
2022/09/19 06:19:25;;;;;;;;;;;;;;;-142.75;100.00;77657.03;5072004;28;20015;-70
2022/09/19 06:21:51;;;;;;;;;;;;;;;-142.75;100.00;77639.31;5072142;28;20015;-70
2022/09/19 06:24:16;;;;;;;;;;;;;;;-142.75;100.00;77615.69;5072350;28;19927;-69
2022/09/19 06:26:41;;;;;;;;;;;;;;;-142.75;100.00;77601.91;5072198;28;19916;-68
2022/09/19 06:29:06;;;;;;;;;;;;;;;-142.75;100.00;77594.03;5071840;28;19913;-68
2022/09/19 06:31:32;;;;;;;;;;;;;;;-142.75;100.00;77590.09;5071931;28;19919;-68
2022/09/19 06:33:57;;;;;;;;;;;;;;;-142.75;100.00;77580.25;5071960;28;19913;-69
2022/09/19 06:36:22;;;;;;;;;;;;;;;-142.75;100.00;77578.28;5071813;28;19913;-69
2022/09/19 06:38:47;;;;;;;;;;;;;;;-142.75;100.00;77586.16;5051070;28;19925;-70
2022/09/19 06:41:13;;;;;;;;;;;;;;;-142.75;100.00;77584.19;5052019;28;20032;-69
2022/09/19 06:43:38;;;;;;;;;;;;;;;-142.75;100.00;77584.19;5059600;28;19923;-69
2022/09/19 06:46:03;;;;;;;;;;;;;;;-142.75;100.00;77580.25;5061526;28;20289;-71
2022/09/19 06:48:29;;;;;;;;;;;;;;;-142.75;100.00;77578.28;5071017;28;20444;-70
2022/09/19 06:50:54;;;;;;;;;;;;;;;-142.75;100.00;77576.31;5064595;28;20390;-69
2022/09/19 06:53:19;;;;;;;;;;;;;;;-142.75;100.00;77572.38;5073078;28;20415;-69
2022/09/19 06:55:45;;;;;;;;;;;;;;;-142.75;100.00;77578.28;5069273;28;19923;-70
2022/09/19 06:58:11;;;;;;;;;;;;;;;-142.75;100.00;77574.34;5073812;28;19931;-70
2022/09/19 07:00:38;;;;;;;;;;;;;;;-142.75;100.00;77566.47;5068765;28;20283;-69
2022/09/19 07:03:05;;;;;;;;;;;;;;;-142.75;100.00;77554.66;5074439;28;19916;-69
2022/09/19 07:05:31;;;;;;;;;;;;;;;-142.75;100.00;77538.91;5073305;28;19913;-70
2022/09/19 07:07:57;;;;;;;;;;;;;;;-142.75;100.00;77503.47;5074573;28;20358;-69
2022/09/19 07:10:22;;;;;;;;;;;;;;;-142.75;100.00;77456.22;5069184;28;20004;-69
2022/09/19 07:12:51;;;;;;;;;;;;;;;-142.75;100.00;77422.72;5070681;28;20413;-70
2022/09/19 07:15:17;;;;;;;;;;;;;;;-142.75;100.00;77365.63;5070573;28;19921;-69
2022/09/19 07:17:42;;;;;;;;;;;;;;;-142.75;100.00;77332.16;5070505;28;19916;-69
2022/09/19 07:20:07;;;;;;;;;;;;;;;-142.75;100.00;77290.81;5066264;28;20015;-69
2022/09/19 07:22:35;;;;;;;;;;;;;;;-142.75;100.00;77267.19;5055072;28;19940;-69
2022/09/19 07:25:00;;;;;;;;;;;;;;;-142.75;100.00;77227.81;5056090;28;19916;-69
2022/09/19 07:27:26;;;;;;;;;;;;;;;-142.75;100.00;77190.41;5064334;28;20302;-69
2022/09/19 07:29:51;;;;;;;;;;;;;;;-142.75;100.00;77184.50;5069204;28;19920;-70
2022/09/19 07:32:16;;;;;;;;;;;;;;;-142.75;100.00;77156.94;5069146;28;20346;-69
2022/09/19 07:34:41;;;;;;;;;;;;;;;-142.75;100.00;77121.50;5064726;28;19913;-69
2022/09/19 07:37:06;;;;;;;;;;;;;;;-142.75;100.00;77090.00;5063176;28;20388;-69
2022/09/19 07:39:31;;;;;;;;;;;;;;;-142.75;100.00;77052.59;5074322;28;19913;-66
2022/09/19 07:41:57;;;;;;;;;;;;;;;-142.75;100.00;77023.06;5068532;28;19924;-66
2022/09/19 07:44:22;;;;;;;;;;;;;;;-142.75;100.00;76983.69;5070034;28;20480;-65
2022/09/19 07:47:26;;;;;;;;;;;;;;;-142.75;100.00;76983.69;5069651;28;19917;-66
2022/09/19 07:49:32;;;;;;;;;;;;;;;-142.75;100.00;76979.75;5074567;28;19959;-66
2022/09/19 07:51:57;;;;;;;;;;;;;;;-142.75;100.00;77015.19;5071806;28;19924;-66
2022/09/19 07:54:23;;;;;;;;;;;;;;;-142.75;100.00;77048.66;5057812;28;19921;-66
2022/09/19 07:56:48;;;;;;;;;;;;;;;-142.75;100.00;77070.31;5054414;28;20428;-66
2022/09/19 07:59:13;;;;;;;;;;;;;;;-142.75;100.00;77086.06;5053273;28;19924;-69
2022/09/19 08:01:38;;;;;;;;;;;;;;;-142.75;100.00;77117.56;5054532;28;19928;-68
2022/09/19 08:04:04;;;;;;;;;;;;;;;-142.75;100.00;77121.50;5054965;28;20298;-68
2022/09/19 08:06:29;;;;;;;;;;;;;;;-142.75;100.00;77131.34;5054688;28;20046;-69
2022/09/19 08:08:54;;;;;;;;;;;;;;;-142.75;100.00;77141.19;5054216;28;20363;-69
2022/09/19 08:11:21;;;;;;;;;;;;;;;-142.75;100.00;77156.94;5053849;28;19917;-68
2022/09/19 08:13:46;;;;;;;;;;;;;;;-142.75;100.00;77149.06;5056270;28;20412;-69
2022/09/19 08:16:11;;;;;;;;;;;;;;;-142.75;100.00;77172.69;5053630;28;20007;-69
2022/09/19 08:18:40;;;;;;;;;;;;;;;-142.75;100.00;77158.91;5065242;28;19927;-70
2022/09/19 08:21:05;;;;;;;;;;;;;;;-142.75;100.00;77186.47;5073252;28;19935;-69
2022/09/19 08:23:30;;;;;;;;;;;;;;;-142.75;100.00;77206.16;5073351;28;20373;-69
2022/09/19 08:25:56;;;;;;;;;;;;;;;-142.75;100.00;77202.22;5073681;28;19960;-69
2022/09/19 08:28:21;;;;;;;;;;;;;;;-142.75;100.00;77141.19;5073460;28;19924;-69
2022/09/19 08:30:47;;;;;;;;;;;;;;;-142.75;100.00;77076.22;5073407;28;19925;-70
2022/09/19 08:33:13;;;;;;;;;;;;;;;-142.75;100.00;77032.91;5073239;28;19934;-69
2022/09/19 08:35:39;;;;;;;;;;;;;;;-142.75;100.00;76987.63;5073904;28;20410;-69
2022/09/19 08:38:05;;;;;;;;;;;;;;;-142.75;100.00;76962.03;5073235;28;19913;-70
2022/09/19 08:40:32;;;;;;;;;;;;;;;-142.75;100.00;76969.91;5073579;28;19912;-69
2022/09/19 08:43:07;;;;;;;;;;;;;;;-142.75;100.00;76926.59;5073021;28;20054;-69
2022/09/19 08:45:44;;;;;;;;;;;;;;;-142.75;100.00;76867.53;5073286;28;19916;-69
2022/09/19 08:48:13;;;;;;;;;;;;;;;-142.75;100.00;76855.72;5073085;28;20309;-70
2022/09/19 08:50:40;;;;;;;;;;;;;;;-142.75;100.00;76828.16;5071903;28;19917;-70
2022/09/19 08:53:10;;;;;;;;;;;;;;;-142.75;100.00;76792.75;5073375;28;19912;-67
2022/09/19 08:55:35;;;;;;;;;;;;;;;-142.75;100.00;76816.34;5073276;28;20340;-67
2022/09/19 08:58:12;;;;;;;;;;;;;;;-142.75;100.00;76814.38;5072548;28;19919;-67
2022/09/19 09:00:40;;;;;;;;;;;;;;;-142.75;100.00;76814.38;5072800;28;19912;-67
2022/09/19 09:03:07;;;;;;;;;;;;;;;-142.75;100.00;76780.94;5072295;28;19917;-67
2022/09/19 09:05:41;;;;;;;;;;;;;;;-142.75;96.09;76741.56;5072565;28;19970;-66
2022/09/19 09:08:09;;;;;;;;;;;;;;;-142.75;97.00;76771.09;5072122;28;19916;-67
2022/09/19 09:10:41;;;;;;;;;;;;;;;-142.75;92.67;76822.25;5071588;28;19917;-67
2022/09/19 09:13:21;;;;;;;;;;;;;;;-142.75;93.16;76763.22;5071109;28;19912;-66
2022/09/19 09:15:47;;;;;;;;;;;;;;;-142.75;92.92;76759.28;5073237;28;19912;-67
2022/09/19 09:18:31;;;;;;;;;;;;;;;-142.75;90.01;76810.44;5072908;28;19913;-67
2022/09/19 09:21:03;;;;;;;;;;;;;;;-142.75;88.44;76790.78;5072876;28;19974;-67
2022/09/19 09:23:34;;;;;;;;;;;;;;;-142.75;89.11;76830.13;5072561;28;19912;-67
2022/09/19 09:26:06;;;;;;;;;;;;;;;-142.75;96.05;76893.13;5072990;28;19913;-66
2022/09/19 09:28:42;;;;;;;;;;;;;;;-142.75;95.20;76910.84;5072545;28;19923;-67
2022/09/19 09:31:17;;;;;;;;;;;;;;;-142.75;93.82;76924.63;5072728;28;19916;-68
2022/09/19 09:33:52;;;;;;;;;;;;;;;-142.75;96.73;76920.69;5072775;28;19917;-67
2022/09/19 09:36:23;;;;;;;;;;;;;;;-142.75;97.32;76920.69;5072595;28;19912;-68
2022/09/19 09:38:52;;;;;;;;;;;;;;;-142.75;97.55;76932.50;5072297;28;20007;-66
2022/09/19 09:44:15;;;;;;;;;;;;;;;-142.75;100.00;76944.31;5052505;28;19923;-67
2022/09/19 09:46:49;;;;;;;;;;;;;;;-142.75;100.00;76948.25;5052368;28;19912;-67
2022/09/19 09:49:15;;;;;;;;;;;;;;;-142.75;100.00;76952.19;5052588;28;19913;-69
2022/09/19 09:51:46;;;;;;;;;;;;;;;-142.75;100.00;76944.31;5052511;28;19913;-69
2022/09/19 09:57:03;;;;;;;;;;;;;;;-142.75;96.44;76924.63;5051937;28;19959;-69
2022/09/19 10:05:33;;;;;;;;;;;;;;;-142.75;93.23;76857.69;5052488;28;20567;-69
2022/09/19 10:08:05;;;;;;;;;;;;;;;-142.75;93.59;76820.28;5052352;28;20003;-69
2022/09/19 10:10:31;;;;;;;;;;;;;;;-142.75;86.81;76778.97;5063303;28;19916;-68
2022/09/19 10:13:02;;;;;;;;;;;;;;;-142.75;88.51;76784.88;5072741;28;19920;-67
2022/09/19 10:15:28;;;;;;;;;;;;;;;-142.75;86.84;76798.66;5072604;28;20349;-68
2022/09/19 10:18:05;;;;;;;;;;;;;;;-142.75;90.20;76798.66;5072155;28;19943;-67
2022/09/19 10:20:49;;;;;;;;;;;;;;;-142.75;86.64;76767.16;5072370;28;20335;-68
2022/09/19 10:23:18;;;;;;;;;;;;;;;-142.75;84.29;76780.94;5075863;28;19977;-67
2022/09/19 10:25:46;;;;;;;;;;;;;;;-142.75;82.81;76743.53;5074995;28;19913;-68
2022/09/19 10:28:17;;;;;;;;;;;;;;;-142.75;81.29;76767.16;5075899;28;19912;-67
2022/09/19 10:30:50;;;;;;;;;;;;;;;-142.75;80.83;76747.47;5076004;28;19920;-68
2022/09/19 10:33:38;;;;;;;;;;;;;;;-142.75;77.43;76741.56;5075960;28;19912;-67
2022/09/19 10:36:07;;;;;;;;;;;;;;;-142.75;78.96;76800.63;5075572;28;19913;-67
2022/09/19 10:38:49;;;;;;;;;;;;;;;-142.75;80.00;76719.91;5075339;28;19920;-68
2022/09/19 10:41:14;;;;;;;;;;;;;;;-142.75;75.60;76643.13;5075786;28;19920;-68
2022/09/19 10:43:44;;;;;;;;;;;;;;;-142.75;74.93;76603.75;5075686;28;19965;-68
2022/09/19 10:46:15;;;;;;;;;;;;;;;-142.75;74.53;76611.63;5075485;28;19913;-69
2022/09/19 10:48:49;;;;;;;;;;;;;;;-142.75;74.29;76586.03;5074014;28;19978;-67
2022/09/19 10:51:15;;;;;;;;;;;;;;;-142.75;72.16;76574.22;5065622;28;19917;-67
2022/09/19 10:53:45;;;;;;;;;;;;;;;-142.75;71.35;76550.59;5060705;28;19912;-67
2022/09/19 10:56:22;;;;;;;;;;;;;;;-142.75;71.31;76538.78;5057614;28;19917;-66
2022/09/19 10:58:49;;;;;;;;;;;;;;;-142.75;69.54;76566.34;5054586;28;19936;-67
2022/09/19 11:01:22;;;;;;;;;;;;;;;-142.75;69.22;76544.69;5066098;28;19966;-67
2022/09/19 11:04:04;;;;;;;;;;;;;;;-142.75;71.23;76540.75;5074753;28;19912;-68
2022/09/19 11:06:30;;;;;;;;;;;;;;;-142.75;70.32;76509.28;5074555;28;19920;-68
2022/09/19 11:08:56;;;;;;;;;;;;;;;-142.75;69.26;76503.38;5074347;28;19912;-68
2022/09/19 11:11:23;;;;;;;;;;;;;;;-142.75;66.76;76440.38;5074863;28;20533;-68
2022/09/19 11:14:06;;;;;;;;;;;;;;;-142.75;68.25;76430.53;5071838;28;20382;-68
2022/09/19 11:16:38;;;;;;;;;;;;;;;-142.75;65.65;76418.72;5073020;28;20017;-68
2022/09/19 11:19:19;;;;;;;;;;;;;;;-142.75;66.82;76499.44;5067770;28;19917;-68
2022/09/19 11:21:45;;;;;;;;;;;;;;;-142.75;67.53;76574.22;5073183;28;20003;-68
2022/09/19 11:24:30;;;;;;;;;;;;;;;-142.75;68.53;76649.03;5074670;28;20013;-69
2022/09/19 11:27:12;;;;;;;;;;;;;;;-142.75;71.49;76682.50;5073986;28;19912;-68
2022/09/19 11:30:00;;;;;;;;;;;;;;;-142.75;69.35;76586.03;5074304;28;20332;-68
2022/09/19 11:32:45;;;;;;;;;;;;;;;-142.75;70.11;76517.16;5073814;28;19912;-67
2022/09/19 11:35:19;;;;;;;;;;;;;;;-142.75;68.96;76465.97;5074275;28;19958;-67
2022/09/19 11:37:56;;;;;;;;;;;;;;;-142.75;68.29;76467.94;5073863;28;19912;-67
2022/09/19 11:40:29;;;;;;;;;;;;;;;-142.75;69.22;76424.63;5074076;28;19957;-68
2022/09/19 11:43:00;;;;;;;;;;;;;;;-142.75;67.78;76393.13;5072655;28;19916;-68
2022/09/19 11:45:30;;;;;;;;;;;;;;;-142.75;65.16;76391.16;5074036;28;19912;-67
2022/09/19 11:48:01;;;;;;;;;;;;;;;-142.75;64.44;76389.19;5073696;28;19912;-67
2022/09/19 11:50:30;;;;;;;;;;;;;;;-142.75;67.31;76365.56;5073486;28;20397;-68
2022/09/19 11:53:01;;;;;;;;;;;;;;;-142.75;66.35;76434.47;5073463;28;20338;-68
2022/09/19 11:55:46;;;;;;;;;;;;;;;-142.75;67.96;76464.00;5073585;28;19920;-68
2022/09/19 11:58:18;;;;;;;;;;;;;;;-142.75;70.26;76511.25;5073491;28;19912;-68
2022/09/19 12:00:50;;;;;;;;;;;;;;;-142.75;69.17;76519.13;5073569;28;20286;-67
2022/09/19 12:03:34;;;;;;;;;;;;;;;-142.75;69.59;76603.75;5072294;28;19923;-68
2022/09/19 12:06:20;;;;;;;;;;;;;;;-142.75;72.01;76672.66;5073586;28;19913;-68
2022/09/19 12:08:48;;;;;;;;;;;;;;;-142.75;71.96;76572.25;5071775;28;19913;-68
2022/09/19 12:11:15;;;;;;;;;;;;;;;-142.75;71.41;76505.34;5047724;22;19929;-69
2022/09/19 12:13:46;;;;;;;;;;;;;;;-142.75;69.01;76503.38;5012579;28;20012;-68
2022/09/19 12:16:27;;;;;;;;;;;;;;;-142.75;70.00;76491.56;5012199;28;20275;-67
2022/09/19 12:18:58;;;;;;;;;;;;;;;-142.75;69.10;76471.88;4997005;28;19921;-67
2022/09/19 12:21:26;;;;;;;;;;;;;;;-142.75;70.92;76503.38;5010111;28;19964;-66
2022/09/19 12:26:59;;;;;;;;;;;;;;;-142.75;69.97;76462.03;4993644;28;19968;-66
2022/09/19 12:29:45;;;;;;;;;;;;;;;-142.75;70.65;76465.97;5003800;28;19914;-67
2022/09/19 12:32:19;;;;;;;;;;;;;;;-142.75;73.22;76572.25;5007250;28;19914;-68
2022/09/19 12:34:50;;;;;;;;;;;;;;;-142.75;84.05;76692.34;5006827;28;19920;-68
2022/09/19 12:37:35;;;;;;;;;;;;;;;-142.75;97.97;76755.34;5001934;28;19913;-68
2022/09/19 12:40:09;;;;;;;;;;;;;;;-142.75;100.00;76865.56;4995058;28;20005;-68
2022/09/19 12:42:56;;;;;;;;;;;;;;;-142.75;100.00;76910.84;5003069;28;19921;-67
2022/09/19 12:45:29;;;;;;;;;;;;;;;-142.75;100.00;76948.25;4992675;28;19914;-70
2022/09/19 12:48:16;;;;;;;;;;;;;;;-142.75;100.00;76914.78;4992980;28;19913;-70